Time;durP1;ratioP1;P1;durP2;ratioP2;P2;SDS_P1;SDS_P2;PMS_P1;PMS_P2;Temp;Humidity;BMP_temperature;BMP_pressure;BME280_temperature;BME280_humidity;BME280_pressure;Samples;Min_cycle;Max_cycle;Signal;HPM_P1;HPM_P2
2022/05/22 00:02:23;;;;;;;6.18;3.90;;;;;;;20.38;67.60;94639.59;5054675;28;20163;-82
2022/05/22 00:04:49;;;;;;;6.40;4.22;;;;;;;20.30;67.51;94632.94;5054577;28;22114;-82
2022/05/22 00:07:14;;;;;;;6.32;3.80;;;;;;;20.19;67.62;94636.72;5053473;28;20180;-82
2022/05/22 00:09:40;;;;;;;5.70;4.20;;;;;;;19.90;67.72;94585.81;5054721;28;20259;-82
2022/05/22 00:12:08;;;;;;;6.35;4.10;;;;;;;20.09;68.29;94626.88;5054079;28;20206;-81
2022/05/22 00:14:33;;;;;;;6.93;4.40;;;;;;;19.89;69.27;94632.34;5054396;28;20717;-82
2022/05/22 00:16:59;;;;;;;4.18;3.78;;;;;;;19.80;69.25;94608.06;5054459;28;20250;-82
2022/05/22 00:19:31;;;;;;;5.85;3.78;;;;;;;20.00;68.79;94633.88;5047416;28;20199;-81
2022/05/22 00:21:57;;;;;;;4.72;4.05;;;;;;;19.98;68.04;94611.97;5054588;28;20191;-81
2022/05/22 00:24:25;;;;;;;5.97;3.72;;;;;;;20.21;68.49;94626.56;5054116;28;20175;-82
2022/05/22 00:26:51;;;;;;;7.93;3.72;;;;;;;20.07;67.01;94583.59;5053970;28;20190;-83
2022/05/22 00:29:17;;;;;;;7.18;3.78;;;;;;;19.98;67.29;94587.91;5054707;28;20209;-85
2022/05/22 00:31:44;;;;;;;6.65;3.95;;;;;;;20.13;67.34;94616.44;5053783;28;20604;-81
2022/05/22 00:34:09;;;;;;;6.68;4.13;;;;;;;20.05;67.47;94601.78;5054314;28;20179;-81
2022/05/22 00:36:35;;;;;;;7.85;3.78;;;;;;;20.08;67.85;94616.47;5053647;28;20621;-81
2022/05/22 00:39:01;;;;;;;4.70;3.22;;;;;;;19.93;68.04;94574.59;5053592;28;20221;-82
2022/05/22 00:41:28;;;;;;;6.65;4.18;;;;;;;20.07;67.55;94601.50;5053940;28;20179;-82
2022/05/22 00:43:55;;;;;;;6.40;3.53;;;;;;;20.01;68.02;94597.25;5049298;28;20182;-82
2022/05/22 00:46:22;;;;;;;8.10;4.13;;;;;;;20.23;67.38;94619.06;5052935;28;20179;-81
2022/05/22 00:48:53;;;;;;;5.10;3.85;;;;;;;20.36;67.07;94615.78;5053811;28;20175;-81
2022/05/22 00:51:36;;;;;;;5.97;3.72;;;;;;;20.46;66.06;94618.41;5054128;28;20172;-81
2022/05/22 00:54:14;;;;;;;5.57;3.85;;;;;;;20.45;66.07;94619.47;5035303;28;20170;-82
2022/05/22 00:56:47;;;;;;;10.32;4.30;;;;;;;20.55;66.05;94618.63;5053578;28;20681;-82
2022/05/22 00:59:19;;;;;;;8.15;3.70;;;;;;;20.30;65.44;94566.09;5052921;28;20233;-82
2022/05/22 01:01:46;;;;;;;3.97;3.42;;;;;;;20.46;64.96;94591.66;5048336;28;20171;-82
2022/05/22 01:04:19;;;;;;;7.80;4.00;;;;;;;20.68;65.28;94616.09;5035368;28;20175;-83
2022/05/22 01:06:45;;;;;;;4.55;3.42;;;;;;;20.73;65.18;94619.81;5050196;28;20198;-82
2022/05/22 01:09:11;;;;;;;5.18;4.03;;;;;;;20.75;64.96;94615.78;5052182;28;20599;-82
2022/05/22 01:11:37;;;;;;;8.38;3.58;;;;;;;20.62;65.04;94593.13;5046903;28;20199;-83
2022/05/22 01:14:07;;;;;;;5.10;3.92;;;;;;;20.62;65.40;94603.03;5046261;28;20203;-82
2022/05/22 01:16:34;;;;;;;5.55;3.53;;;;;;;20.68;65.11;94613.41;5049085;28;20178;-83
2022/05/22 01:18:59;;;;;;;3.83;3.30;;;;;;;20.66;65.23;94610.25;5053084;28;20279;-82
2022/05/22 01:21:31;;;;;;;8.15;3.53;;;;;;;20.26;65.58;94567.69;5051011;28;20260;-82
2022/05/22 01:23:57;;;;;;;7.63;3.40;;;;;;;20.48;65.89;94613.59;5052187;28;20179;-82
2022/05/22 01:26:25;;;;;;;7.00;2.78;;;;;;;20.31;66.14;94605.13;5053344;28;20317;-82
2022/05/22 01:28:50;;;;;;;3.80;3.25;;;;;;;19.98;65.77;94562.00;5052903;28;20187;-82
2022/05/22 01:31:17;;;;;;;4.32;3.58;;;;;;;20.28;65.45;94603.78;5052876;28;20164;-82
2022/05/22 01:33:42;;;;;;;5.97;3.10;;;;;;;20.06;64.92;94565.19;5051068;28;20309;-82
2022/05/22 01:36:09;;;;;;;5.40;3.45;;;;;;;20.09;64.68;94580.66;5052931;28;20273;-82
2022/05/22 01:38:36;;;;;;;7.65;3.80;;;;;;;20.14;65.07;94616.19;5053024;28;20174;-82
2022/05/22 01:41:03;;;;;;;5.57;3.55;;;;;;;20.12;64.44;94609.50;5053146;28;20540;-82
2022/05/22 01:43:28;;;;;;;4.90;3.40;;;;;;;20.17;63.63;94606.78;5052870;28;20259;-82
2022/05/22 01:45:57;;;;;;;5.03;3.03;;;;;;;20.09;62.96;94588.66;5052298;28;21213;-82
2022/05/22 01:48:23;;;;;;;4.28;2.67;;;;;;;20.09;62.22;94580.66;5043543;28;20241;-82
2022/05/22 01:50:50;;;;;;;11.18;3.35;;;;;;;20.37;61.99;94612.06;5052963;28;20194;-83
2022/05/22 01:53:18;;;;;;;7.15;2.88;;;;;;;20.38;61.17;94620.88;5053614;28;20191;-82
2022/05/22 01:55:44;;;;;;;3.30;3.00;;;;;;;20.25;61.03;94611.53;5053086;28;20776;-82
2022/05/22 01:58:09;;;;;;;7.43;3.38;;;;;;;20.26;61.27;94605.13;5047932;28;20265;-82
2022/05/22 02:00:36;;;;;;;4.97;3.00;;;;;;;20.36;61.08;94615.00;5048136;28;20183;-82
2022/05/22 02:03:02;;;;;;;3.28;2.60;;;;;;;20.44;60.91;94615.19;5052651;28;20175;-82
2022/05/22 02:05:28;;;;;;;4.82;2.75;;;;;;;20.41;59.49;94601.59;5048754;28;20234;-82
2022/05/22 02:10:38;;;;;;;4.38;2.67;;;;;;;20.52;58.43;94619.97;5052151;28;20194;-83
2022/05/22 02:13:05;;;;;;;4.07;3.03;;;;;;;20.52;58.22;94621.84;5052037;28;20253;-83
2022/05/22 02:15:31;;;;;;;8.45;2.58;;;;;;;20.48;56.43;94624.28;5050939;28;20175;-82
2022/05/22 02:17:57;;;;;;;5.45;2.50;;;;;;;20.40;56.98;94632.91;5043794;28;20604;-83
2022/05/22 02:20:23;;;;;;;3.75;2.50;;;;;;;20.43;55.67;94631.53;5041607;28;20218;-83
2022/05/22 02:22:51;;;;;;;4.25;2.33;;;;;;;20.23;54.24;94621.75;5041290;28;20673;-82
2022/05/22 02:25:23;;;;;;;5.50;2.50;;;;;;;20.30;55.59;94632.94;5039777;28;20642;-83
2022/05/22 02:27:49;;;;;;;3.17;2.03;;;;;;;20.20;52.33;94624.97;5044068;28;20190;-83
2022/05/22 02:30:20;;;;;;;4.68;2.45;;;;;;;20.20;54.24;94635.66;5051896;28;20681;-83
2022/05/22 02:32:45;;;;;;;8.20;2.10;;;;;;;20.01;53.30;94603.41;5034213;28;20195;-83
2022/05/22 02:35:13;;;;;;;5.97;2.60;;;;;;;20.30;52.40;94644.41;5052067;28;20233;-83
2022/05/22 02:37:42;;;;;;;3.80;2.22;;;;;;;20.38;52.73;94640.38;5051064;28;20665;-83
2022/05/22 02:40:09;;;;;;;5.78;4.05;;;;;;;20.08;51.47;94585.19;5051501;28;20183;-83
2022/05/22 02:42:38;;;;;;;14.23;11.57;;;;;;;20.20;50.74;94617.75;5048843;28;20156;-84
2022/05/22 02:45:04;;;;;;;28.35;14.60;;;;;;;20.27;51.45;94642.28;5051344;28;20179;-84
2022/05/22 02:47:33;;;;;;;28.17;20.70;;;;;;;20.28;51.79;94641.22;5051497;28;20163;-84
2022/05/22 02:49:58;;;;;;;24.88;19.15;;;;;;;20.14;51.65;94618.06;5051045;28;20186;-84
2022/05/22 02:52:24;;;;;;;19.73;12.82;;;;;;;20.26;51.56;94646.03;5038250;28;20195;-84
2022/05/22 02:54:49;;;;;;;10.18;5.50;;;;;;;19.88;51.66;94599.47;5043460;28;20172;-84
2022/05/22 02:57:21;;;;;;;3.47;3.17;;;;;;;20.05;51.24;94620.50;5046488;28;20175;-84
2022/05/22 02:59:47;;;;;;;9.88;3.03;;;;;;;20.01;50.96;94648.84;5043440;28;20199;-84
2022/05/22 03:02:13;;;;;;;5.38;2.95;;;;;;;20.04;50.75;94647.50;5043766;28;20654;-83
2022/05/22 03:04:38;;;;;;;4.85;2.40;;;;;;;20.01;50.67;94645.38;5039050;28;20163;-83
2022/05/22 03:07:04;;;;;;;5.00;2.80;;;;;;;20.15;51.39;94649.06;5035685;28;20262;-83
2022/05/22 03:09:30;;;;;;;6.85;5.22;;;;;;;19.85;49.50;94613.38;5041345;28;20708;-83
2022/05/22 03:11:57;;;;;;;4.10;3.25;;;;;;;20.17;48.64;94661.06;5041015;28;20195;-83
2022/05/22 03:14:23;;;;;;;3.63;2.38;;;;;;;20.04;47.62;94645.63;5043077;28;20173;-83
2022/05/22 03:16:48;;;;;;;4.15;2.10;;;;;;;19.98;48.03;94645.94;5043796;28;21003;-83
2022/05/22 03:19:14;;;;;;;3.70;1.95;;;;;;;19.96;47.67;94655.03;5052006;28;20178;-83
2022/05/22 03:21:41;;;;;;;3.30;1.95;;;;;;;19.72;47.49;94613.19;5051155;28;20645;-83
2022/05/22 03:24:07;;;;;;;3.60;1.92;;;;;;;19.64;47.21;94600.38;5051005;28;20175;-83
2022/05/22 03:26:33;;;;;;;10.65;2.67;;;;;;;20.03;47.08;94653.91;5051012;28;20177;-83
2022/05/22 03:28:58;;;;;;;5.30;2.15;;;;;;;19.98;45.94;94658.19;5051565;28;20163;-83
2022/05/22 03:31:23;;;;;;;2.45;2.10;;;;;;;19.87;46.09;94650.50;5051038;28;20163;-83
2022/05/22 03:33:49;;;;;;;3.75;2.13;;;;;;;19.98;46.80;94658.19;5047445;28;20175;-83
2022/05/22 03:36:14;;;;;;;9.55;4.50;;;;;;;20.09;47.50;94660.81;5035401;28;20167;-82
2022/05/22 03:38:40;;;;;;;8.00;2.90;;;;;;;20.12;47.74;94669.09;5039341;28;20159;-82
2022/05/22 03:41:05;;;;;;;6.85;4.68;;;;;;;19.99;48.15;94626.94;5034372;28;20176;-82
2022/05/22 03:43:31;;;;;;;16.02;9.23;;;;;;;20.29;49.94;94663.41;5032059;28;20209;-82
2022/05/22 03:45:56;;;;;;;13.30;7.40;;;;;;;20.35;49.42;94673.03;5033222;28;20255;-82
2022/05/22 03:48:22;;;;;;;8.77;4.05;;;;;;;20.38;48.56;94680.50;5038279;28;20206;-82
2022/05/22 03:50:48;;;;;;;4.63;2.70;;;;;;;20.26;48.05;94671.97;5045090;28;20657;-83
2022/05/22 03:53:14;;;;;;;9.20;2.80;;;;;;;20.21;47.89;94667.47;5049258;28;20207;-82
2022/05/22 03:55:42;;;;;;;6.82;2.92;;;;;;;20.25;49.18;94667.69;5051225;28;20189;-82
2022/05/22 03:58:08;;;;;;;6.55;3.13;;;;;;;20.28;48.52;94653.78;5051324;28;21050;-82
2022/05/22 04:00:33;;;;;;;9.63;2.90;;;;;;;20.38;48.92;94664.47;5050737;28;20170;-84
2022/05/22 04:02:59;;;;;;;4.88;2.25;;;;;;;20.41;48.70;94665.78;5019672;28;20170;-84
2022/05/22 04:05:24;;;;;;;5.55;2.70;;;;;;;20.43;49.91;94664.41;5033300;28;20163;-84
2022/05/22 04:07:50;;;;;;;3.63;2.30;;;;;;;20.16;49.07;94621.22;5032938;28;20319;-83
2022/05/22 04:10:17;;;;;;;16.75;2.50;;;;;;;20.51;48.74;94660.34;5050572;28;20175;-83
2022/05/22 04:12:43;;;;;;;4.13;1.95;;;;;;;20.44;47.71;94639.28;5050786;28;20190;-83
2022/05/22 04:15:13;;;;;;;4.50;2.03;;;;;;;20.70;49.68;94667.44;5032705;28;20175;-84
2022/05/22 04:17:39;;;;;;;13.82;2.22;;;;;;;20.44;49.71;94628.56;5050795;28;20211;-84
2022/05/22 04:20:06;;;;;;;8.23;1.77;;;;;;;20.66;48.79;94658.41;5050928;28;20210;-84
2022/05/22 04:22:32;;;;;;;7.53;2.05;;;;;;;20.74;48.67;94674.94;5036040;28;20159;-83
2022/05/22 04:25:15;;;;;;;3.25;2.05;;;;;;;20.68;50.29;94656.22;5054254;28;20547;-83
2022/05/22 04:27:42;;;;;;;5.38;2.15;;;;;;;20.69;50.25;94662.38;5041713;28;20556;-83
2022/05/22 04:30:10;;;;;;;6.72;1.65;;;;;;;20.76;51.01;94673.56;5041633;28;20248;-84
2022/05/22 04:32:35;;;;;;;3.92;1.90;;;;;;;20.63;50.24;94666.97;5047647;28;20191;-83
2022/05/22 04:35:01;;;;;;;2.40;2.00;;;;;;;20.62;51.63;94668.03;5054394;28;20557;-84
2022/05/22 04:37:26;;;;;;;5.63;1.70;;;;;;;20.71;51.44;94676.28;5045792;28;20194;-84
2022/05/22 04:39:52;;;;;;;7.80;1.60;;;;;;;20.69;49.93;94687.25;5044246;28;20535;-84
2022/05/22 04:42:17;;;;;;;5.78;1.90;;;;;;;20.60;51.77;94672.88;5043933;28;20721;-84
2022/05/22 04:44:43;;;;;;;11.75;3.58;;;;;;;20.65;50.59;94680.88;5040237;28;20172;-84
2022/05/22 04:47:09;;;;;;;4.20;1.83;;;;;;;20.46;50.55;94663.88;5045210;28;20616;-84
2022/05/22 04:49:35;;;;;;;7.13;2.00;;;;;;;20.53;50.09;94684.94;5042974;28;20163;-83
2022/05/22 04:52:00;;;;;;;8.20;2.28;;;;;;;20.38;52.02;94664.47;5021548;28;20187;-83
2022/05/22 04:54:25;;;;;;;6.53;2.10;;;;;;;20.36;52.76;94653.22;5044021;28;20172;-84
2022/05/22 04:56:53;;;;;;;7.25;2.00;;;;;;;20.42;54.12;94649.44;5042956;28;20164;-84
2022/05/22 04:59:20;;;;;;;2.75;2.17;;;;;;;20.63;54.54;94672.31;5042407;28;20262;-84
2022/05/22 05:01:45;;;;;;;7.50;2.28;;;;;;;20.49;51.14;94687.41;5047765;28;20763;-84
2022/05/22 05:04:13;;;;;;;7.82;4.20;;;;;;;20.44;53.01;94681.25;5035144;28;20212;-84
2022/05/22 05:06:38;;;;;;;10.10;5.78;;;;;;;20.26;49.57;94670.09;5053159;28;20631;-83
2022/05/22 05:09:04;;;;;;;8.55;3.88;;;;;;;20.36;49.98;94674.63;5053318;28;20197;-84
2022/05/22 05:11:30;;;;;;;9.80;2.92;;;;;;;20.17;50.38;94642.34;5043788;28;20171;-84
2022/05/22 05:13:55;;;;;;;20.98;3.22;;;;;;;20.48;50.21;94683.13;5041230;28;20194;-84
2022/05/22 05:16:22;;;;;;;6.88;2.13;;;;;;;20.64;50.97;94681.16;5040489;28;20175;-83
2022/05/22 05:18:47;;;;;;;8.15;3.72;;;;;;;20.77;50.52;94674.34;5052503;28;20353;-83
2022/05/22 05:21:15;;;;;;;8.00;2.42;;;;;;;20.75;50.95;94652.44;5053472;28;20171;-83
2022/05/22 05:23:41;;;;;;;7.68;1.90;;;;;;;20.94;45.86;94690.81;5053271;28;20203;-83
2022/05/22 05:26:08;;;;;;;5.35;2.78;;;;;;;20.59;47.96;94633.00;5052948;28;20268;-83
2022/05/22 05:28:34;;;;;;;8.60;2.65;;;;;;;20.94;47.66;94690.81;5052937;28;20658;-82
2022/05/22 05:30:59;;;;;;;5.90;2.15;;;;;;;20.96;47.40;94694.81;5053692;28;20198;-82
2022/05/22 05:33:26;;;;;;;7.78;2.58;;;;;;;20.97;45.90;94693.75;5053444;28;20201;-83
2022/05/22 05:35:52;;;;;;;6.10;5.18;;;;;;;20.96;46.22;94697.50;5052909;28;20229;-82
2022/05/22 05:38:17;;;;;;;7.93;3.35;;;;;;;20.75;45.46;94655.94;5052764;28;20171;-82
2022/05/22 05:40:44;;;;;;;4.38;2.95;;;;;;;20.90;46.00;94674.53;5052780;28;20638;-82
2022/05/22 05:43:10;;;;;;;5.57;2.92;;;;;;;20.93;47.43;94662.47;5052755;28;20195;-82
2022/05/22 05:45:36;;;;;;;5.03;2.50;;;;;;;21.07;46.98;94674.94;5052576;28;20166;-82
2022/05/22 05:48:01;;;;;;;4.82;2.22;;;;;;;21.26;45.70;94701.84;5052515;28;20225;-82
2022/05/22 05:50:27;;;;;;;5.18;2.45;;;;;;;21.19;48.16;94671.13;5042661;28;21003;-82
2022/05/22 05:52:57;;;;;;;31.45;16.55;;;;;;;21.48;47.27;94705.94;5043492;28;20195;-82
2022/05/22 05:55:24;;;;;;;56.53;29.25;;;;;;;21.44;47.63;94698.47;5042798;28;20168;-82
2022/05/22 05:57:50;;;;;;;19.55;9.73;;;;;;;21.54;45.46;94707.47;5044449;28;20317;-82
2022/05/22 06:00:19;;;;;;;9.02;4.30;;;;;;;21.37;43.10;94705.22;5039897;28;20171;-82
2022/05/22 06:02:44;;;;;;;3.85;1.77;;;;;;;21.26;45.38;94691.16;5051499;28;20245;-82
2022/05/22 06:05:12;;;;;;;6.20;1.75;;;;;;;21.43;43.95;94712.16;5052406;28;20255;-83
2022/05/22 06:07:37;;;;;;;7.93;4.78;;;;;;;21.40;44.96;94700.13;5045338;28;20167;-82
2022/05/22 06:10:05;;;;;;;3.67;2.10;;;;;;;21.51;43.01;94713.41;5037742;28;20167;-81
2022/05/22 06:12:31;;;;;;;11.77;2.75;;;;;;;21.37;43.60;94708.69;5051815;28;20195;-82
2022/05/22 06:14:56;;;;;;;12.10;2.72;;;;;;;20.84;43.73;94666.84;5052103;28;20163;-82
2022/05/22 06:17:34;;;;;;;5.50;2.60;;;;;;;21.08;44.32;94706.00;5023829;28;20222;-82
2022/05/22 06:20:00;;;;;;;6.07;2.72;;;;;;;20.87;45.10;94666.25;5051088;28;20190;-81
2022/05/22 06:22:28;;;;;;;4.93;2.17;;;;;;;20.62;44.00;94669.91;5051301;28;20200;-82
2022/05/22 06:24:54;;;;;;;5.38;2.03;;;;;;;20.69;44.60;94703.31;5044406;28;20697;-81
2022/05/22 06:27:21;;;;;;;18.33;2.47;;;;;;;20.77;45.27;94717.16;5052567;28;20179;-82
2022/05/22 06:29:47;;;;;;;17.90;2.72;;;;;;;20.64;45.04;94695.31;5052473;28;20244;-81
2022/05/22 06:32:15;;;;;;;13.50;4.20;;;;;;;20.90;46.91;94705.84;5051769;28;20244;-81
2022/05/22 06:34:41;;;;;;;7.72;3.47;;;;;;;20.91;46.08;94707.47;5051860;28;20257;-81
2022/05/22 06:37:09;;;;;;;17.35;2.75;;;;;;;21.15;46.06;94707.53;5051927;28;20176;-82
2022/05/22 06:39:51;;;;;;;19.65;3.22;;;;;;;21.18;45.36;94689.06;5038400;28;20164;-82
2022/05/22 06:42:34;;;;;;;3.00;2.00;;;;;;;21.37;43.99;94702.53;5050226;28;20159;-81
2022/05/22 06:45:11;;;;;;;3.83;2.13;;;;;;;21.32;43.76;94687.34;5049681;28;20273;-82
2022/05/22 06:47:37;;;;;;;2.72;1.85;;;;;;;21.36;44.23;94698.28;5050817;28;20159;-82
2022/05/22 06:50:06;;;;;;;2.30;2.00;;;;;;;21.15;45.80;94636.03;5042280;28;20190;-83
2022/05/22 06:52:32;;;;;;;6.00;1.95;;;;;;;21.78;46.86;94708.31;5045869;28;20199;-83
2022/05/22 06:54:59;;;;;;;6.60;2.63;;;;;;;21.78;48.02;94678.84;5049088;28;20217;-83
2022/05/22 06:57:24;;;;;;;9.70;1.75;;;;;;;21.95;46.58;94679.19;5050644;28;20174;-84
2022/05/22 06:59:55;;;;;;;2.60;1.70;;;;;;;22.31;45.47;94705.59;5048856;28;20175;-83
2022/05/22 07:02:21;;;;;;;5.50;2.85;;;;;;;22.47;46.86;94697.06;5051448;28;20190;-83
2022/05/22 07:04:47;;;;;;;1.50;1.35;;;;;;;22.76;43.96;94704.19;5051279;28;20187;-86
2022/05/22 07:07:12;;;;;;;3.03;1.55;;;;;;;22.49;43.69;94656.50;5051429;28;20682;-84
2022/05/22 07:09:38;;;;;;;6.07;1.65;;;;;;;22.84;46.21;94685.53;5050857;28;20182;-83
2022/05/22 07:12:09;;;;;;;4.72;1.60;;;;;;;22.64;44.51;94642.88;5031308;28;20228;-85
2022/05/22 07:14:36;;;;;;;2.10;1.60;;;;;;;23.13;44.07;94692.63;5051089;28;20205;-84
2022/05/22 07:17:03;;;;;;;3.67;1.70;;;;;;;23.11;43.67;94684.06;5051118;28;20167;-84
2022/05/22 07:19:28;;;;;;;3.78;1.80;;;;;;;23.04;43.81;94684.44;5051932;28;20685;-84
2022/05/22 07:21:54;;;;;;;11.18;2.72;;;;;;;22.97;44.46;94688.59;5042178;28;20167;-86
2022/05/22 07:24:19;;;;;;;5.28;2.33;;;;;;;22.72;48.03;94636.06;5050545;28;20170;-82
2022/05/22 07:26:45;;;;;;;5.40;2.53;;;;;;;22.88;47.41;94651.66;5051228;28;20256;-83
2022/05/22 07:29:10;;;;;;;5.65;2.03;;;;;;;23.11;44.70;94679.50;5051178;28;20170;-83
2022/05/22 07:31:39;;;;;;;6.18;2.55;;;;;;;23.03;45.70;94652.50;5050916;28;20178;-81
2022/05/22 07:34:05;;;;;;;2.97;2.15;;;;;;;23.32;46.19;94698.78;5051216;28;20171;-83
2022/05/22 07:36:31;;;;;;;2.45;1.63;;;;;;;23.35;45.87;94682.06;5050946;28;20175;-83
2022/05/22 07:38:56;;;;;;;6.15;2.65;;;;;;;23.35;45.79;94671.31;5050880;28;20167;-83
2022/05/22 07:41:22;;;;;;;6.82;3.45;;;;;;;23.66;46.86;94696.59;5051029;28;20253;-80
2022/05/22 07:43:47;;;;;;;3.53;2.03;;;;;;;23.77;43.75;94696.41;5037622;28;20179;-80
2022/05/22 07:46:13;;;;;;;4.30;2.28;;;;;;;23.87;42.68;94696.22;5028903;28;20306;-82
2022/05/22 07:48:41;;;;;;;5.75;1.67;;;;;;;23.90;40.89;94692.91;5050326;28;20182;-84
2022/05/22 07:51:08;;;;;;;3.50;1.80;;;;;;;23.95;43.63;94685.56;5047098;28;20174;-84
2022/05/22 07:53:34;;;;;;;4.75;2.65;;;;;;;23.99;42.27;94680.38;5038200;28;20561;-84
2022/05/22 07:55:59;;;;;;;2.03;1.73;;;;;;;23.78;43.78;94663.06;5050234;28;20171;-87
2022/05/22 07:58:27;;;;;;;2.22;1.58;;;;;;;23.92;44.75;94675.41;5054893;28;20178;-88
2022/05/22 08:00:53;;;;;;;5.32;1.42;;;;;;;23.96;44.96;94668.31;5053389;28;20167;-82
2022/05/22 08:03:20;;;;;;;9.52;1.83;;;;;;;24.01;45.02;94670.13;5054630;28;20554;-82
2022/05/22 08:05:46;;;;;;;6.03;2.97;;;;;;;23.96;44.24;94656.75;5054622;28;20175;-82
2022/05/22 08:08:12;;;;;;;4.60;2.25;;;;;;;23.46;42.16;94621.66;5042052;28;20182;-83
2022/05/22 08:10:40;;;;;;;5.78;2.20;;;;;;;23.44;44.30;94650.72;5043846;28;20175;-84
2022/05/22 08:13:08;;;;;;;8.70;2.10;;;;;;;23.02;43.59;94610.63;5054374;28;20199;-83
2022/05/22 08:15:36;;;;;;;6.05;2.67;;;;;;;23.12;44.69;94642.69;5054412;28;20163;-84
2022/05/22 08:18:02;;;;;;;5.78;2.40;;;;;;;22.94;44.91;94626.31;5054276;28;20272;-84
2022/05/22 08:20:29;;;;;;;9.35;2.60;;;;;;;23.03;44.56;94644.44;5031149;28;20183;-88
2022/05/22 08:22:59;;;;;;;8.98;2.92;;;;;;;23.04;44.88;94643.34;5036143;28;20175;-86
2022/05/22 08:25:27;;;;;;;6.15;3.40;;;;;;;22.63;45.90;94576.88;5037064;28;20264;-87
2022/05/22 08:27:53;;;;;;;9.23;2.40;;;;;;;22.89;45.46;94598.78;5044927;28;20206;-88
2022/05/22 08:30:21;;;;;;;4.72;2.00;;;;;;;22.96;46.01;94604.56;5036412;28;20207;-87
2022/05/22 08:32:48;;;;;;;4.30;2.38;;;;;;;23.28;47.81;94623.31;5037411;28;20218;-87
2022/05/22 08:35:17;;;;;;;8.65;2.35;;;;;;;23.39;46.24;94612.41;5037142;28;20171;-87
2022/05/22 08:37:43;;;;;;;7.43;2.20;;;;;;;23.51;47.32;94621.63;5055204;28;20169;-87
2022/05/22 08:40:10;;;;;;;7.13;2.35;;;;;;;23.49;48.63;94585.38;5053918;28;20254;-87
2022/05/22 08:42:47;;;;;;;5.03;1.95;;;;;;;23.88;48.71;94622.50;5053440;28;20246;-83
2022/05/22 08:45:26;;;;;;;4.55;1.67;;;;;;;23.77;46.92;94605.78;5053021;28;20159;-84
2022/05/22 08:48:20;;;;;;;3.60;2.00;;;;;;;23.87;46.82;94616.31;5053852;28;20159;-84
2022/05/22 08:50:48;;;;;;;3.92;1.90;;;;;;;23.66;47.50;94581.00;5051908;28;20164;-83
2022/05/22 08:53:39;;;;;;;4.00;1.83;;;;;;;23.73;47.24;94620.13;5053711;28;20187;-83
2022/05/22 08:59:10;;;;;;;13.30;3.30;;;;;;;23.49;46.83;94633.75;5050178;28;20170;-82
2022/05/22 09:01:59;;;;;;;5.95;2.00;;;;;;;23.25;48.54;94629.31;5052632;28;20603;-82
2022/05/22 09:04:45;;;;;;;3.28;1.90;;;;;;;23.12;48.70;94624.69;5053547;28;20236;-84
2022/05/22 09:07:41;;;;;;;5.00;1.92;;;;;;;23.01;47.92;94631.31;5050611;28;20199;-82
2022/05/22 09:10:13;;;;;;;2.22;1.85;;;;;;;22.63;47.95;94637.81;5042573;28;20178;-82
2022/05/22 09:12:51;;;;;;;2.10;1.75;;;;;;;22.54;48.47;94635.78;5041203;28;20583;-82
2022/05/22 09:15:34;;;;;;;6.88;2.50;;;;;;;22.54;48.79;94641.16;5033167;28;20225;-81
2022/05/22 09:18:10;;;;;;;3.13;2.63;;;;;;;22.47;49.30;94631.88;5051401;28;20316;-82
2022/05/22 09:20:38;;;;;;;7.05;4.90;;;;;;;22.47;49.44;94638.03;5052928;28;20662;-82
2022/05/22 09:23:32;;;;;;;6.43;4.60;;;;;;;22.50;48.35;94633.97;5047370;28;20222;-81
2022/05/22 09:26:10;;;;;;;4.63;3.40;;;;;;;22.32;51.56;94602.56;5052325;28;20171;-80
2022/05/22 09:29:01;;;;;;;6.60;2.97;;;;;;;22.58;49.17;94619.88;5052871;28;20308;-80
2022/05/22 09:31:45;;;;;;;6.50;2.30;;;;;;;22.69;50.22;94618.66;5052803;28;20166;-81
2022/05/22 09:34:23;;;;;;;7.10;2.40;;;;;;;22.82;50.20;94622.50;5052257;28;20170;-81
2022/05/22 09:36:51;;;;;;;6.57;2.17;;;;;;;23.01;52.24;94620.56;5052654;28;20328;-80
2022/05/22 09:39:35;;;;;;;10.32;2.83;;;;;;;23.23;49.74;94614.56;5053093;28;20171;-81
2022/05/22 09:42:06;;;;;;;6.07;2.92;;;;;;;23.47;49.04;94609.03;5050705;28;20198;-81
2022/05/22 09:44:37;;;;;;;3.55;1.90;;;;;;;23.75;48.00;94605.28;5041757;28;20184;-79
2022/05/22 09:47:24;;;;;;;2.60;1.80;;;;;;;24.30;48.33;94600.63;5053002;28;20506;-81
2022/05/22 09:50:04;;;;;;;13.57;1.52;;;;;;;24.63;43.86;94592.38;5052909;28;20179;-82
2022/05/22 09:52:32;;;;;;;4.35;1.90;;;;;;;24.64;45.20;94585.91;5052117;28;20194;-81
2022/05/22 09:55:15;;;;;;;2.55;1.50;;;;;;;24.77;46.07;94575.06;5052520;28;20183;-82
2022/05/22 09:58:10;;;;;;;6.03;1.80;;;;;;;25.04;43.81;94578.75;5044835;28;20710;-82
2022/05/22 10:01:03;;;;;;;2.95;1.70;;;;;;;25.10;44.22;94572.91;5050492;28;20167;-81
2022/05/22 10:03:53;;;;;;;4.00;1.52;;;;;;;25.43;44.81;94576.09;5041689;28;20170;-81
2022/05/22 10:06:27;;;;;;;9.93;2.58;;;;;;;25.44;43.41;94574.97;5051445;28;20179;-81
2022/05/22 10:09:07;;;;;;;2.97;1.95;;;;;;;25.45;42.04;94563.09;5052160;28;20624;-81
2022/05/22 10:11:57;;;;;;;1.48;1.38;;;;;;;25.40;42.59;94541.69;5051900;28;20167;-81
2022/05/22 10:14:55;;;;;;;2.25;1.77;;;;;;;25.72;44.65;94558.63;5051295;28;20179;-81
2022/05/22 10:17:39;;;;;;;5.18;2.55;;;;;;;25.92;41.75;94558.03;5050400;28;20211;-80
2022/05/22 10:20:04;;;;;;;5.32;1.85;;;;;;;25.97;40.45;94562.47;5050083;28;20681;-81
2022/05/22 10:22:51;;;;;;;9.27;2.63;;;;;;;26.08;40.71;94555.69;5052528;28;20179;-81
2022/05/22 10:25:38;;;;;;;8.13;1.70;;;;;;;26.18;41.05;94548.09;5051800;28;20632;-82
2022/05/22 10:28:03;;;;;;;5.72;1.52;;;;;;;26.19;39.76;94551.59;5051820;28;20166;-87
2022/05/22 10:30:42;;;;;;;10.98;2.03;;;;;;;25.94;41.41;94518.06;5052223;28;20447;-83
2022/05/22 10:33:23;;;;;;;4.15;2.58;;;;;;;26.10;41.44;94540.78;5049253;28;20193;-82
2022/05/22 10:35:48;;;;;;;7.93;6.90;;;;;;;26.12;41.05;94537.78;5051443;28;20181;-83
2022/05/22 10:38:23;;;;;;;21.80;19.65;;;;;;;25.98;40.08;94542.50;5051851;28;20701;-84
2022/05/22 10:43:41;;;;;;;5.55;3.90;;;;;;;25.80;40.80;94539.75;5050878;28;20167;-85
2022/05/22 10:46:07;;;;;;;5.28;2.80;;;;;;;25.79;41.11;94538.16;5051828;28;20159;-85
2022/05/22 10:48:35;;;;;;;12.38;9.70;;;;;;;25.41;42.29;94486.66;5051729;28;20224;-84
2022/05/22 10:51:08;;;;;;;7.53;5.05;;;;;;;25.64;42.58;94525.13;5051487;28;20183;-86
2022/05/22 10:53:48;;;;;;;2.33;1.98;;;;;;;25.68;40.22;94536.88;5051027;28;21018;-85
2022/05/22 10:56:14;;;;;;;5.05;2.10;;;;;;;25.74;41.89;94532.94;5043020;28;20171;-84
2022/05/22 10:58:53;;;;;;;4.82;1.83;;;;;;;25.71;42.66;94533.56;5029415;28;20190;-83
2022/05/22 11:01:28;;;;;;;3.28;1.92;;;;;;;25.64;42.05;94508.94;5031953;28;20620;-83
2022/05/22 11:04:02;;;;;;;3.80;1.83;;;;;;;25.69;42.06;94499.91;5049652;28;20564;-82
2022/05/22 11:06:28;;;;;;;4.85;1.77;;;;;;;25.73;42.91;94482.78;5050651;28;20684;-86
2022/05/22 11:08:55;;;;;;;4.90;2.50;;;;;;;25.88;42.14;94473.44;5033652;28;20178;-84
2022/05/22 11:11:27;;;;;;;4.63;2.17;;;;;;;26.08;41.75;94475.53;5051311;28;20245;-83
2022/05/22 11:14:03;;;;;;;4.80;1.60;;;;;;;26.60;42.31;94521.44;5047018;28;20210;-82
2022/05/22 11:16:29;;;;;;;10.15;1.90;;;;;;;26.48;41.08;94503.16;5032995;28;20580;-84
2022/05/22 11:19:21;;;;;;;3.33;1.60;;;;;;;26.58;42.56;94518.25;5051103;28;20214;-84
2022/05/22 11:22:06;;;;;;;2.78;2.20;;;;;;;26.71;44.08;94513.78;5033299;28;20310;-84
2022/05/22 11:24:46;;;;;;;4.63;2.70;;;;;;;26.83;41.05;94524.72;5051226;28;20553;-80
2022/05/22 11:27:39;;;;;;;7.47;2.53;;;;;;;26.68;40.60;94510.63;5049252;28;20182;-79
2022/05/22 11:30:19;;;;;;;4.95;2.20;;;;;;;26.41;42.07;94489.34;5050094;28;20560;-82
2022/05/22 11:33:07;;;;;;;2.10;1.60;;;;;;;26.37;42.79;94507.31;5049290;28;20763;-81
2022/05/22 11:36:07;;;;;;;5.95;2.25;;;;;;;26.16;42.64;94500.94;5050515;28;20171;-82
2022/05/22 11:38:38;;;;;;;6.80;2.80;;;;;;;26.02;41.65;94493.00;5040296;28;20191;-83
2022/05/22 11:41:21;;;;;;;11.90;2.53;;;;;;;25.80;40.47;94499.31;5050876;28;20186;-84
2022/05/22 11:44:25;;;;;;;4.57;2.33;;;;;;;25.72;41.50;94491.19;5047749;28;20175;-84
2022/05/22 11:47:10;;;;;;;8.98;3.03;;;;;;;25.41;41.55;94464.31;5049641;28;20262;-84
2022/05/22 11:49:54;;;;;;;5.22;1.92;;;;;;;25.42;42.84;94503.63;5046931;28;22001;-82
2022/05/22 11:55:43;;;;;;;2.83;2.30;;;;;;;25.23;42.77;94476.13;5047168;28;20186;-86
2022/05/22 11:58:24;;;;;;;6.35;2.13;;;;;;;25.17;41.41;94503.19;5028421;28;20182;-86